Terminal Aerodrome Forecast
Issued by NWS

Home | Current Version | Previous Version | Text Only | Print | Product List | Glossary On
Versions: 1 2 3 4 5 6 7 8 9 10 11 12 13 14 15 16 17
000
FTUS43 KGRB 241500 AAA
TAFATW
TAF AMD
KATW 241509Z 2415/2512 27008KT P6SM SCT020 BKN035
     FM242300 34006KT 6SM -SN BKN020 OVC035
     FM250200 04009KT 3SM -SN BKN015 OVC030
     FM250700 04012G20KT P6SM -SN BKN018=

USA.gov is the U.S. government's official web portal to all federal, state and local government web resources and services.